Time;durP1;ratioP1;P1;durP2;ratioP2;P2;SDS_P1;SDS_P2;PMS_P1;PMS_P2;Temp;Humidity;BMP_temperature;BMP_pressure;BME280_temperature;BME280_humidity;BME280_pressure;Samples;Min_cycle;Max_cycle;Signal;HPM_P1;HPM_P2
2021/10/26 00:01:29;;;;;;;0.20;0.20;;;;;;;;;;4995920;28;20395;-85
2021/10/26 00:03:54;;;;;;;0.00;0.00;;;;;;;;;;4995876;28;20061;-85
2021/10/26 00:06:19;;;;;;;0.68;0.63;;;;;;;;;;4995757;28;20037;-85
2021/10/26 00:08:44;;;;;;;0.00;0.00;;;;;;;;;;4995518;28;20026;-86
2021/10/26 00:11:10;;;;;;;0.10;0.10;;;;;;;;;;4995641;28;20026;-85
2021/10/26 00:13:36;;;;;;;0.32;0.20;;;;;;;;;;4995806;28;20040;-85
2021/10/26 00:16:01;;;;;;;0.10;0.10;;;;;;;;;;4995571;28;20030;-85
2021/10/26 00:18:27;;;;;;;0.00;0.00;;;;;;;;;;4995325;28;20065;-85
2021/10/26 00:20:52;;;;;;;0.20;0.20;;;;;;;;;;4995392;28;20035;-84
2021/10/26 00:23:17;;;;;;;0.20;0.20;;;;;;;;;;4981964;28;20126;-85
2021/10/26 00:25:43;;;;;;;0.43;0.32;;;;;;;;;;4976092;28;20459;-85
2021/10/26 00:28:09;;;;;;;0.10;0.10;;;;;;;;;;4976040;28;20039;-86
2021/10/26 00:30:34;;;;;;;1.23;1.20;;;;;;;;;;4975457;28;20475;-85
2021/10/26 00:33:00;;;;;;;0.20;0.20;;;;;;;;;;4975717;28;20030;-86
2021/10/26 00:35:27;;;;;;;0.05;0.05;;;;;;;;;;4975674;28;20077;-85
2021/10/26 00:37:53;;;;;;;0.10;0.10;;;;;;;;;;4975380;28;20479;-85
2021/10/26 00:40:18;;;;;;;0.52;0.52;;;;;;;;;;4975216;28;20042;-85
2021/10/26 00:42:44;;;;;;;0.00;0.00;;;;;;;;;;4975778;28;20037;-85
2021/10/26 00:45:09;;;;;;;2.90;2.58;;;;;;;;;;4975554;28;20430;-86
2021/10/26 00:47:35;;;;;;;0.10;0.10;;;;;;;;;;4975587;28;20029;-85
2021/10/26 00:50:00;;;;;;;0.20;0.20;;;;;;;;;;4975209;28;20030;-84
2021/10/26 00:52:26;;;;;;;0.75;0.75;;;;;;;;;;4975626;28;20117;-85
2021/10/26 00:54:52;;;;;;;0.30;0.30;;;;;;;;;;4975408;28;20162;-85
2021/10/26 00:57:20;;;;;;;0.00;0.00;;;;;;;;;;4975288;28;20102;-85
2021/10/26 00:59:46;;;;;;;0.10;0.10;;;;;;;;;;4975239;28;20053;-86
2021/10/26 01:02:11;;;;;;;1.38;1.02;;;;;;;;;;4975205;28;20105;-85
2021/10/26 01:04:37;;;;;;;1.25;1.10;;;;;;;;;;4975127;28;20480;-85
2021/10/26 01:07:02;;;;;;;0.65;0.60;;;;;;;;;;4975066;28;20054;-85
2021/10/26 01:09:28;;;;;;;0.20;0.20;;;;;;;;;;4974608;28;20055;-84
2021/10/26 01:11:53;;;;;;;3.08;1.20;;;;;;;;;;4974914;28;20027;-85
2021/10/26 01:14:18;;;;;;;1.80;1.70;;;;;;;;;;4974654;28;20054;-85
2021/10/26 01:16:44;;;;;;;0.20;0.20;;;;;;;;;;4975378;28;20023;-85
2021/10/26 01:19:09;;;;;;;0.98;0.98;;;;;;;;;;4974846;28;20043;-85
2021/10/26 01:21:34;;;;;;;0.10;0.10;;;;;;;;;;4974992;28;20419;-85
2021/10/26 01:24:00;;;;;;;2.45;1.25;;;;;;;;;;4974825;28;20053;-84
2021/10/26 01:26:25;;;;;;;0.00;0.00;;;;;;;;;;4974772;28;20519;-85
2021/10/26 01:28:51;;;;;;;0.08;0.08;;;;;;;;;;4957456;28;20034;-85
2021/10/26 01:31:16;;;;;;;1.38;1.27;;;;;;;;;;4974646;28;20030;-85
2021/10/26 01:33:42;;;;;;;5.22;1.27;;;;;;;;;;4974752;28;20053;-85
2021/10/26 01:36:07;;;;;;;0.00;0.00;;;;;;;;;;4975218;28;20075;-85
2021/10/26 01:38:33;;;;;;;0.00;0.00;;;;;;;;;;4974594;28;20026;-85
2021/10/26 01:40:58;;;;;;;0.17;0.17;;;;;;;;;;4974369;28;20442;-85
2021/10/26 01:43:23;;;;;;;0.20;0.20;;;;;;;;;;4974235;28;20026;-85
2021/10/26 01:45:49;;;;;;;0.10;0.10;;;;;;;;;;4974589;28;20464;-85
2021/10/26 01:48:14;;;;;;;0.28;0.28;;;;;;;;;;4974527;28;20042;-85
2021/10/26 01:50:40;;;;;;;0.10;0.10;;;;;;;;;;4974497;28;20031;-86
2021/10/26 01:53:06;;;;;;;0.15;0.15;;;;;;;;;;4989154;28;20018;-85
2021/10/26 01:55:31;;;;;;;0.10;0.10;;;;;;;;;;4993825;28;20027;-85
2021/10/26 01:57:57;;;;;;;0.75;0.65;;;;;;;;;;4993851;28;20038;-85
2021/10/26 02:00:22;;;;;;;0.08;0.08;;;;;;;;;;4993732;28;20014;-85
2021/10/26 02:02:48;;;;;;;0.10;0.10;;;;;;;;;;4992956;28;20030;-85
2021/10/26 02:05:14;;;;;;;0.93;0.52;;;;;;;;;;4993716;28;20062;-85
2021/10/26 02:07:39;;;;;;;0.55;0.55;;;;;;;;;;4993714;28;20022;-85
2021/10/26 02:10:05;;;;;;;0.10;0.10;;;;;;;;;;4993621;28;20129;-85
2021/10/26 02:12:30;;;;;;;0.40;0.40;;;;;;;;;;4993763;28;20053;-86
2021/10/26 02:14:56;;;;;;;0.65;0.65;;;;;;;;;;4993671;28;20041;-85
2021/10/26 02:17:21;;;;;;;0.00;0.00;;;;;;;;;;4993290;28;20023;-86
2021/10/26 02:19:46;;;;;;;0.10;0.10;;;;;;;;;;4993520;28;20101;-85
2021/10/26 02:22:12;;;;;;;0.10;0.10;;;;;;;;;;4993792;28;20018;-85
2021/10/26 02:24:37;;;;;;;0.20;0.20;;;;;;;;;;4993230;28;20040;-85
2021/10/26 02:27:02;;;;;;;1.10;0.63;;;;;;;;;;4993542;28;20030;-85
2021/10/26 02:29:27;;;;;;;0.10;0.10;;;;;;;;;;4993456;28;20391;-86
2021/10/26 02:31:53;;;;;;;0.10;0.10;;;;;;;;;;4993312;28;20372;-85
2021/10/26 02:34:18;;;;;;;0.00;0.00;;;;;;;;;;4993561;28;20042;-85
2021/10/26 02:36:44;;;;;;;0.00;0.00;;;;;;;;;;4993535;28;20018;-85
2021/10/26 02:39:09;;;;;;;0.17;0.17;;;;;;;;;;4993399;28;20097;-85
2021/10/26 02:41:34;;;;;;;0.00;0.00;;;;;;;;;;4975828;28;20064;-85
2021/10/26 02:44:00;;;;;;;0.15;0.15;;;;;;;;;;4993733;28;20435;-85
2021/10/26 02:46:25;;;;;;;0.00;0.00;;;;;;;;;;4993530;28;20033;-85
2021/10/26 02:48:50;;;;;;;0.50;0.50;;;;;;;;;;4993516;28;20125;-85
2021/10/26 02:51:16;;;;;;;0.75;0.75;;;;;;;;;;4993311;28;20029;-86
2021/10/26 02:53:42;;;;;;;0.30;0.30;;;;;;;;;;4992968;28;20105;-85
2021/10/26 02:56:07;;;;;;;0.10;0.10;;;;;;;;;;4976059;28;20046;-86
2021/10/26 02:58:32;;;;;;;0.03;0.03;;;;;;;;;;4992733;28;20479;-85
2021/10/26 03:00:57;;;;;;;0.00;0.00;;;;;;;;;;4992993;28;20117;-85
2021/10/26 03:03:23;;;;;;;0.10;0.10;;;;;;;;;;4992900;28;20035;-85
2021/10/26 03:05:49;;;;;;;0.20;0.20;;;;;;;;;;4992991;28;20144;-85
2021/10/26 03:08:15;;;;;;;0.20;0.20;;;;;;;;;;4993581;28;20038;-86
2021/10/26 03:10:40;;;;;;;0.20;0.20;;;;;;;;;;4993054;28;20057;-85
2021/10/26 03:13:05;;;;;;;1.45;0.73;;;;;;;;;;4994021;28;20128;-84
2021/10/26 03:15:30;;;;;;;1.08;1.08;;;;;;;;;;4996619;28;20491;-85
2021/10/26 03:17:56;;;;;;;0.25;0.25;;;;;;;;;;4996430;28;20034;-85
2021/10/26 03:20:21;;;;;;;0.38;0.32;;;;;;;;;;4996267;28;20022;-85
2021/10/26 03:22:47;;;;;;;0.10;0.10;;;;;;;;;;4996860;28;20030;-85
2021/10/26 03:25:12;;;;;;;0.10;0.10;;;;;;;;;;4996297;28;20113;-85
2021/10/26 03:27:37;;;;;;;0.17;0.17;;;;;;;;;;4996506;28;20019;-85
2021/10/26 03:30:04;;;;;;;0.00;0.00;;;;;;;;;;4996537;28;20368;-85
2021/10/26 03:32:29;;;;;;;0.15;0.15;;;;;;;;;;4996467;28;20476;-85
2021/10/26 03:34:54;;;;;;;0.10;0.10;;;;;;;;;;4996289;28;20134;-86
2021/10/26 03:37:20;;;;;;;1.27;1.17;;;;;;;;;;4996561;28;20471;-85
2021/10/26 03:39:47;;;;;;;0.22;0.22;;;;;;;;;;4995947;28;20034;-86
2021/10/26 03:42:12;;;;;;;0.10;0.10;;;;;;;;;;4996179;28;20022;-85
2021/10/26 03:44:37;;;;;;;0.38;0.38;;;;;;;;;;4996147;28;20081;-84
2021/10/26 03:47:03;;;;;;;0.00;0.00;;;;;;;;;;4995954;28;20458;-86
2021/10/26 03:49:28;;;;;;;0.10;0.10;;;;;;;;;;4996235;28;20023;-85
2021/10/26 03:51:53;;;;;;;0.03;0.03;;;;;;;;;;4991103;28;20026;-84
2021/10/26 03:54:18;;;;;;;0.00;0.00;;;;;;;;;;4976779;28;20031;-85
2021/10/26 03:56:44;;;;;;;0.00;0.00;;;;;;;;;;4976473;28;20081;-85
2021/10/26 03:59:10;;;;;;;0.00;0.00;;;;;;;;;;4976490;28;20038;-85
2021/10/26 04:01:36;;;;;;;0.00;0.00;;;;;;;;;;4976354;28;20038;-85
2021/10/26 04:04:02;;;;;;;0.20;0.20;;;;;;;;;;4976123;28;20519;-85
2021/10/26 04:06:28;;;;;;;0.32;0.17;;;;;;;;;;4976314;28;20158;-85
2021/10/26 04:09:03;;;;;;;0.50;0.50;;;;;;;;;;4976323;28;20039;-85
2021/10/26 04:11:30;;;;;;;0.70;0.70;;;;;;;;;;4975774;28;20459;-85
2021/10/26 04:13:56;;;;;;;0.40;0.40;;;;;;;;;;4976353;28;20026;-85
2021/10/26 04:16:22;;;;;;;0.95;0.95;;;;;;;;;;4976100;28;20105;-86
2021/10/26 04:18:48;;;;;;;0.08;0.08;;;;;;;;;;4976125;28;20083;-86
2021/10/26 04:21:13;;;;;;;0.30;0.30;;;;;;;;;;4976122;28;20035;-86
2021/10/26 04:23:39;;;;;;;1.23;1.20;;;;;;;;;;4958600;28;20027;-85
2021/10/26 04:26:05;;;;;;;0.03;0.03;;;;;;;;;;4974801;28;20510;-86
2021/10/26 04:28:30;;;;;;;0.10;0.10;;;;;;;;;;4975923;28;20117;-85
2021/10/26 04:30:59;;;;;;;0.22;0.22;;;;;;;;;;4958558;28;20125;-85
2021/10/26 04:33:24;;;;;;;0.20;0.20;;;;;;;;;;4958479;28;20018;-85
2021/10/26 04:35:50;;;;;;;0.52;0.52;;;;;;;;;;4975784;28;20035;-85
2021/10/26 04:38:15;;;;;;;0.20;0.20;;;;;;;;;;4975773;28;20031;-86
2021/10/26 04:40:40;;;;;;;0.00;0.00;;;;;;;;;;4975815;28;20019;-84
2021/10/26 04:43:06;;;;;;;0.00;0.00;;;;;;;;;;4975912;28;20073;-85
2021/10/26 04:45:31;;;;;;;0.10;0.10;;;;;;;;;;4972350;28;20085;-86
2021/10/26 04:47:57;;;;;;;3.40;0.60;;;;;;;;;;4975821;28;20046;-85
2021/10/26 04:50:22;;;;;;;0.10;0.10;;;;;;;;;;4975367;28;20041;-86
2021/10/26 04:52:48;;;;;;;0.20;0.20;;;;;;;;;;4958203;28;20053;-85
2021/10/26 04:55:14;;;;;;;0.10;0.10;;;;;;;;;;4975202;28;20467;-85
2021/10/26 04:57:40;;;;;;;0.05;0.05;;;;;;;;;;4975326;28;20034;-85
2021/10/26 05:00:07;;;;;;;0.00;0.00;;;;;;;;;;4958056;28;20392;-86
2021/10/26 05:02:32;;;;;;;0.22;0.22;;;;;;;;;;4975317;28;20014;-85
2021/10/26 05:04:57;;;;;;;0.10;0.10;;;;;;;;;;4975540;28;20050;-85
2021/10/26 05:07:23;;;;;;;0.00;0.00;;;;;;;;;;4975205;28;20101;-85
2021/10/26 05:09:48;;;;;;;0.10;0.10;;;;;;;;;;4974964;28;20377;-85
2021/10/26 05:12:13;;;;;;;2.35;1.33;;;;;;;;;;4975146;28;20038;-86
2021/10/26 05:14:39;;;;;;;0.35;0.35;;;;;;;;;;4975100;28;20034;-86
2021/10/26 05:17:05;;;;;;;0.20;0.20;;;;;;;;;;4975131;28;20018;-85
2021/10/26 05:19:32;;;;;;;0.45;0.45;;;;;;;;;;4974868;28;20388;-86
2021/10/26 05:21:57;;;;;;;0.00;0.00;;;;;;;;;;4974839;28;20015;-86
2021/10/26 05:24:25;;;;;;;0.00;0.00;;;;;;;;;;4975110;28;20033;-85
2021/10/26 05:26:50;;;;;;;0.15;0.15;;;;;;;;;;4974989;28;20184;-85
2021/10/26 05:29:16;;;;;;;0.00;0.00;;;;;;;;;;4975143;28;20472;-86
2021/10/26 05:31:41;;;;;;;6.72;0.65;;;;;;;;;;4974895;28;20027;-85
2021/10/26 05:34:08;;;;;;;0.00;0.00;;;;;;;;;;4974406;28;20042;-85
2021/10/26 05:36:34;;;;;;;0.32;0.32;;;;;;;;;;4974707;28;20023;-85
2021/10/26 05:38:59;;;;;;;0.08;0.08;;;;;;;;;;4974615;28;20034;-85
2021/10/26 05:41:24;;;;;;;0.03;0.03;;;;;;;;;;4957201;28;20117;-86
2021/10/26 05:43:50;;;;;;;0.08;0.08;;;;;;;;;;4974802;28;20034;-85
2021/10/26 05:46:15;;;;;;;22.75;1.17;;;;;;;;;;4974923;28;20019;-86
2021/10/26 05:48:40;;;;;;;0.00;0.00;;;;;;;;;;4967870;28;20284;-85
2021/10/26 05:51:06;;;;;;;0.10;0.10;;;;;;;;;;4974454;28;20030;-85
2021/10/26 05:53:32;;;;;;;0.20;0.20;;;;;;;;;;4956369;28;20019;-85
2021/10/26 05:55:57;;;;;;;0.10;0.10;;;;;;;;;;4955663;28;20117;-86
2021/10/26 05:58:22;;;;;;;0.10;0.10;;;;;;;;;;4974494;28;20113;-85
2021/10/26 06:00:48;;;;;;;0.10;0.10;;;;;;;;;;4955457;28;20053;-85
2021/10/26 06:03:13;;;;;;;0.03;0.03;;;;;;;;;;4955408;28;20039;-85
2021/10/26 06:05:39;;;;;;;0.20;0.20;;;;;;;;;;4950026;28;20023;-86
2021/10/26 06:08:07;;;;;;;0.00;0.00;;;;;;;;;;4964430;28;20058;-85
2021/10/26 06:10:35;;;;;;;0.00;0.00;;;;;;;;;;4974364;28;20515;-85
2021/10/26 06:13:04;;;;;;;1.30;1.25;;;;;;;;;;4974586;28;20019;-85
2021/10/26 06:15:29;;;;;;;0.30;0.30;;;;;;;;;;4974232;28;20023;-86
2021/10/26 06:17:54;;;;;;;6.45;1.67;;;;;;;;;;4974348;28;20053;-86
2021/10/26 06:20:20;;;;;;;0.00;0.00;;;;;;;;;;4974014;28;20042;-86
2021/10/26 06:22:45;;;;;;;0.00;0.00;;;;;;;;;;4982972;28;20460;-84
2021/10/26 06:25:10;;;;;;;0.00;0.00;;;;;;;;;;4992469;28;20112;-86
2021/10/26 06:27:36;;;;;;;0.00;0.00;;;;;;;;;;4989787;28;20026;-86
2021/10/26 06:30:01;;;;;;;1.65;1.55;;;;;;;;;;4986184;28;20128;-85
2021/10/26 06:32:27;;;;;;;0.10;0.10;;;;;;;;;;4991259;28;20109;-86
2021/10/26 06:34:53;;;;;;;3.83;1.48;;;;;;;;;;4993394;28;20455;-86
2021/10/26 06:37:18;;;;;;;0.80;0.80;;;;;;;;;;4992746;28;20081;-85
2021/10/26 06:39:43;;;;;;;0.08;0.08;;;;;;;;;;4993203;28;20042;-85
2021/10/26 06:42:08;;;;;;;0.20;0.20;;;;;;;;;;4992856;28;20061;-85
2021/10/26 06:44:34;;;;;;;20.33;0.73;;;;;;;;;;4993250;28;20073;-85
2021/10/26 06:46:59;;;;;;;0.10;0.10;;;;;;;;;;4993311;28;20089;-85
2021/10/26 06:49:25;;;;;;;0.00;0.00;;;;;;;;;;4995530;28;20022;-85
2021/10/26 06:51:50;;;;;;;0.00;0.00;;;;;;;;;;4997433;28;20019;-84
2021/10/26 06:54:15;;;;;;;0.10;0.10;;;;;;;;;;4996942;28;20371;-85
2021/10/26 06:56:41;;;;;;;0.10;0.10;;;;;;;;;;4996603;28;20026;-85
2021/10/26 06:59:06;;;;;;;0.38;0.38;;;;;;;;;;4997067;28;20070;-85
2021/10/26 07:01:31;;;;;;;0.30;0.30;;;;;;;;;;4996325;28;20073;-85
2021/10/26 07:03:57;;;;;;;0.00;0.00;;;;;;;;;;4997019;28;20029;-84
2021/10/26 07:06:22;;;;;;;0.00;0.00;;;;;;;;;;4996484;28;20026;-86
2021/10/26 07:08:47;;;;;;;3.83;0.68;;;;;;;;;;4995309;28;20049;-86
2021/10/26 07:11:13;;;;;;;0.25;0.25;;;;;;;;;;4989298;28;20023;-85
2021/10/26 07:13:39;;;;;;;0.10;0.10;;;;;;;;;;4977555;28;20031;-85
2021/10/26 07:16:05;;;;;;;0.15;0.15;;;;;;;;;;4986645;28;20038;-85
2021/10/26 07:18:30;;;;;;;0.20;0.20;;;;;;;;;;4986896;28;20023;-85
2021/10/26 07:20:55;;;;;;;0.10;0.10;;;;;;;;;;4990926;28;20105;-85
2021/10/26 07:23:21;;;;;;;0.10;0.10;;;;;;;;;;4996241;28;20034;-86
2021/10/26 07:25:46;;;;;;;2.58;0.47;;;;;;;;;;4996742;28;20022;-85
2021/10/26 07:28:12;;;;;;;0.00;0.00;;;;;;;;;;4996181;28;20512;-85
2021/10/26 07:30:39;;;;;;;0.00;0.00;;;;;;;;;;4987114;28;20057;-86
2021/10/26 07:33:08;;;;;;;0.08;0.08;;;;;;;;;;4977811;28;20368;-85
2021/10/26 07:35:40;;;;;;;0.10;0.10;;;;;;;;;;4996120;28;20019;-85
2021/10/26 07:38:06;;;;;;;0.35;0.35;;;;;;;;;;4996221;28;20026;-85
2021/10/26 07:40:31;;;;;;;0.10;0.10;;;;;;;;;;4996320;28;20390;-85
2021/10/26 07:42:57;;;;;;;0.00;0.00;;;;;;;;;;4994982;28;20027;-85
2021/10/26 07:45:22;;;;;;;0.00;0.00;;;;;;;;;;4976817;28;20031;-84
2021/10/26 07:47:47;;;;;;;0.10;0.10;;;;;;;;;;4976386;28;20419;-85
2021/10/26 07:50:13;;;;;;;0.32;0.32;;;;;;;;;;4976784;28;20073;-85
2021/10/26 07:52:38;;;;;;;0.00;0.00;;;;;;;;;;4975937;28;20038;-85
2021/10/26 07:55:04;;;;;;;1.20;0.82;;;;;;;;;;4983288;28;20026;-86
2021/10/26 07:57:30;;;;;;;0.00;0.00;;;;;;;;;;4989483;28;20117;-85
2021/10/26 07:59:55;;;;;;;0.15;0.15;;;;;;;;;;4974679;28;20061;-86
2021/10/26 08:02:21;;;;;;;0.10;0.10;;;;;;;;;;4972433;28;20460;-85
2021/10/26 08:04:46;;;;;;;0.10;0.10;;;;;;;;;;4993835;28;20018;-85
2021/10/26 08:07:12;;;;;;;0.40;0.40;;;;;;;;;;4993213;28;20057;-86
2021/10/26 08:09:38;;;;;;;1.85;1.13;;;;;;;;;;4993955;28;20456;-85
2021/10/26 08:12:03;;;;;;;1.20;1.10;;;;;;;;;;4993285;28;20037;-85
2021/10/26 08:14:29;;;;;;;20.98;2.55;;;;;;;;;;4993448;28;20109;-85
2021/10/26 08:16:54;;;;;;;14.80;5.55;;;;;;;;;;4963917;28;20023;-85
2021/10/26 08:19:19;;;;;;;3.78;2.60;;;;;;;;;;4973800;28;20113;-86
2021/10/26 08:21:46;;;;;;;1.55;1.23;;;;;;;;;;4973684;28;20039;-86
2021/10/26 08:24:12;;;;;;;5.05;1.15;;;;;;;;;;4973941;28;20451;-85
2021/10/26 08:26:43;;;;;;;1.00;0.45;;;;;;;;;;4973382;28;20019;-85
2021/10/26 08:29:18;;;;;;;0.08;0.08;;;;;;;;;;4973674;28;20070;-85
2021/10/26 08:32:10;;;;;;;0.10;0.10;;;;;;;;;;4974108;28;20093;-85
2021/10/26 08:37:15;;;;;;;0.50;0.50;;;;;;;;;;4973138;28;20043;-85
2021/10/26 08:39:43;;;;;;;0.00;0.00;;;;;;;;;;4973304;28;20042;-85
2021/10/26 08:42:14;;;;;;;0.70;0.70;;;;;;;;;;4973301;28;20035;-85
2021/10/26 08:44:41;;;;;;;0.70;0.40;;;;;;;;;;4973423;28;20045;-85
2021/10/26 08:47:06;;;;;;;0.00;0.00;;;;;;;;;;4973463;28;20023;-85
2021/10/26 08:49:33;;;;;;;0.00;0.00;;;;;;;;;;4973240;28;20054;-85
2021/10/26 08:51:58;;;;;;;1.20;0.68;;;;;;;;;;4973009;28;20043;-85
2021/10/26 08:54:24;;;;;;;0.38;0.38;;;;;;;;;;4973849;28;20080;-86
2021/10/26 08:56:49;;;;;;;0.65;0.65;;;;;;;;;;4973074;28;20486;-85
2021/10/26 08:59:18;;;;;;;0.00;0.00;;;;;;;;;;4973040;28;20046;-85
2021/10/26 09:01:46;;;;;;;0.00;0.00;;;;;;;;;;4972955;28;20129;-85
2021/10/26 09:04:12;;;;;;;0.10;0.10;;;;;;;;;;4972999;28;20030;-85
2021/10/26 09:06:44;;;;;;;0.10;0.10;;;;;;;;;;4972964;28;20035;-85
2021/10/26 09:09:13;;;;;;;0.00;0.00;;;;;;;;;;4972737;28;20061;-85
2021/10/26 09:16:39;;;;;;;0.10;0.10;;;;;;;;;;4972625;28;20062;-85
2021/10/26 09:17:17;;;;;;;1.15;1.05;;;;;;;;;;4971918;28;20049;-85
2021/10/26 09:19:44;;;;;;;1.95;1.52;;;;;;;;;;4972620;28;20038;-85
2021/10/26 09:22:09;;;;;;;1.70;1.60;;;;;;;;;;4972816;28;20022;-88
2021/10/26 09:24:34;;;;;;;1.58;1.48;;;;;;;;;;4973198;28;20042;-85
2021/10/26 09:27:06;;;;;;;2.50;1.50;;;;;;;;;;4972570;28;20037;-85
2021/10/26 09:29:34;;;;;;;12.95;2.03;;;;;;;;;;4972719;28;20038;-86
2021/10/26 09:32:03;;;;;;;0.95;0.95;;;;;;;;;;4972718;28;20019;-85
2021/10/26 09:34:36;;;;;;;0.10;0.10;;;;;;;;;;4972154;28;20509;-85
2021/10/26 09:37:02;;;;;;;0.63;0.63;;;;;;;;;;4972632;28;20031;-85
2021/10/26 09:39:28;;;;;;;0.30;0.30;;;;;;;;;;4972155;28;20039;-85
2021/10/26 09:41:53;;;;;;;0.00;0.00;;;;;;;;;;4972215;28;20045;-86
2021/10/26 09:44:20;;;;;;;0.40;0.40;;;;;;;;;;4972802;28;20031;-86
2021/10/26 09:46:52;;;;;;;1.48;0.77;;;;;;;;;;4972427;28;20038;-86
2021/10/26 09:49:24;;;;;;;4.13;2.72;;;;;;;;;;4972943;28;20042;-85
2021/10/26 09:51:51;;;;;;;0.73;0.73;;;;;;;;;;4971451;28;20026;-86
2021/10/26 09:54:19;;;;;;;0.00;0.00;;;;;;;;;;4971111;28;20035;-85
2021/10/26 09:57:04;;;;;;;0.38;0.38;;;;;;;;;;4970975;28;20384;-86
2021/10/26 09:59:30;;;;;;;1.75;1.65;;;;;;;;;;4970912;28;20663;-86
2021/10/26 10:01:55;;;;;;;0.15;0.15;;;;;;;;;;4971094;28;20109;-85
2021/10/26 10:04:30;;;;;;;0.55;0.55;;;;;;;;;;4971036;28;20030;-85
2021/10/26 10:06:55;;;;;;;34.92;2.17;;;;;;;;;;4971657;28;20042;-85
2021/10/26 10:09:21;;;;;;;0.10;0.10;;;;;;;;;;4970870;28;20046;-86
2021/10/26 10:11:57;;;;;;;3.10;0.65;;;;;;;;;;4970469;28;20034;-86
2021/10/26 10:14:22;;;;;;;;;;;;;;;;;;4971060;28;20031;-86
2021/10/26 10:16:48;;;;;;;0.20;0.20;;;;;;;;;;4970810;28;19978;-86
2021/10/26 10:19:14;;;;;;;0.30;0.30;;;;;;;;;;4982318;28;20656;-85
2021/10/26 10:21:40;;;;;;;0.38;0.22;;;;;;;;;;4989802;28;20665;-85
2021/10/26 10:24:07;;;;;;;0.08;0.08;;;;;;;;;;4992695;28;20455;-85
2021/10/26 10:26:35;;;;;;;2.45;1.77;;;;;;;;;;4994671;28;20034;-85
2021/10/26 10:29:01;;;;;;;0.10;0.10;;;;;;;;;;4994478;28;20033;-85
2021/10/26 10:31:26;;;;;;;2.55;1.98;;;;;;;;;;4994783;28;20018;-85
2021/10/26 10:33:54;;;;;;;0.20;0.20;;;;;;;;;;4994038;28;20069;-85
2021/10/26 10:36:20;;;;;;;0.65;0.65;;;;;;;;;;4974528;28;20030;-85
2021/10/26 10:38:46;;;;;;;0.03;0.03;;;;;;;;;;4975822;28;20057;-88
2021/10/26 10:41:21;;;;;;;0.28;0.28;;;;;;;;;;4975930;28;20467;-85
2021/10/26 10:43:47;;;;;;;0.05;0.05;;;;;;;;;;4975603;28;20513;-85
2021/10/26 10:46:31;;;;;;;2.88;2.63;;;;;;;;;;4975625;28;20058;-84
2021/10/26 10:48:56;;;;;;;0.03;0.03;;;;;;;;;;4974906;28;20454;-84
2021/10/26 10:51:22;;;;;;;0.15;0.15;;;;;;;;;;4958153;28;20035;-87
2021/10/26 10:53:49;;;;;;;0.52;0.40;;;;;;;;;;4976023;28;20027;-85
2021/10/26 10:56:17;;;;;;;0.05;0.05;;;;;;;;;;4975234;28;20033;-85
2021/10/26 10:58:43;;;;;;;0.43;0.30;;;;;;;;;;4975285;28;20038;-84
2021/10/26 11:01:35;;;;;;;0.20;0.15;;;;;;;;;;4975497;28;20089;-84
2021/10/26 11:04:18;;;;;;;1.10;1.00;;;;;;;;;;4975201;28;20031;-85
2021/10/26 11:06:44;;;;;;;0.47;0.40;;;;;;;;;;4975126;28;20506;-86
2021/10/26 11:09:27;;;;;;;0.00;0.00;;;;;;;;;;4974558;28;20053;-85
2021/10/26 11:12:13;;;;;;;0.63;0.52;;;;;;;;;;4975045;28;20023;-85
2021/10/26 11:14:44;;;;;;;0.10;0.10;;;;;;;;;;4974719;28;20098;-85
2021/10/26 11:17:28;;;;;;;0.03;0.03;;;;;;;;;;4974968;28;20035;-85
2021/10/26 11:19:57;;;;;;;0.85;0.85;;;;;;;;;;4974851;28;20038;-85
2021/10/26 11:22:48;;;;;;;0.38;0.38;;;;;;;;;;4974894;28;20034;-85
2021/10/26 11:25:21;;;;;;;1.23;1.13;;;;;;;;;;4985488;28;20057;-86
2021/10/26 11:27:47;;;;;;;4.53;1.35;;;;;;;;;;4987483;28;20031;-85
2021/10/26 11:30:27;;;;;;;0.43;0.43;;;;;;;;;;4977698;28;20371;-86
2021/10/26 11:33:11;;;;;;;2.72;0.65;;;;;;;;;;4984969;28;20041;-86
2021/10/26 11:35:55;;;;;;;0.00;0.00;;;;;;;;;;4986980;28;20035;-85
2021/10/26 11:38:25;;;;;;;0.28;0.28;;;;;;;;;;4984906;28;20026;-85
2021/10/26 11:40:52;;;;;;;0.10;0.10;;;;;;;;;;4984698;28;20062;-86
2021/10/26 11:43:17;;;;;;;0.20;0.20;;;;;;;;;;4979702;28;20807;-87
2021/10/26 11:45:55;;;;;;;20.17;1.45;;;;;;;;;;4962741;28;20033;-85
2021/10/26 11:48:39;;;;;;;0.40;0.40;;;;;;;;;;4981226;28;20497;-87
2021/10/26 11:51:23;;;;;;;0.15;0.15;;;;;;;;;;4982540;28;20081;-86
2021/10/26 11:53:52;;;;;;;0.55;0.55;;;;;;;;;;4979794;28;20034;-86
2021/10/26 11:56:21;;;;;;;0.25;0.25;;;;;;;;;;4973252;28;20842;-85
2021/10/26 11:59:12;;;;;;;0.28;0.28;;;;;;;;;;4972806;28;20047;-85
2021/10/26 12:01:38;;;;;;;0.35;0.35;;;;;;;;;;4975220;28;20399;-85
2021/10/26 12:04:11;;;;;;;6.65;1.25;;;;;;;;;;4979677;28;20033;-85
2021/10/26 12:06:36;;;;;;;0.63;0.63;;;;;;;;;;4983603;28;20101;-85
2021/10/26 12:09:04;;;;;;;0.20;0.20;;;;;;;;;;4981264;28;20153;-86
2021/10/26 12:11:35;;;;;;;0.10;0.10;;;;;;;;;;4965741;28;20503;-86
2021/10/26 12:14:19;;;;;;;0.10;0.10;;;;;;;;;;4977506;28;20074;-85
2021/10/26 12:17:01;;;;;;;1.05;0.95;;;;;;;;;;4982978;28;20030;-88
2021/10/26 12:19:27;;;;;;;1.02;0.93;;;;;;;;;;4985688;28;20046;-85
2021/10/26 12:21:53;;;;;;;0.55;0.38;;;;;;;;;;4982284;28;20034;-86
2021/10/26 12:24:23;;;;;;;0.28;0.28;;;;;;;;;;4980699;28;20395;-85
2021/10/26 12:26:59;;;;;;;0.00;0.00;;;;;;;;;;4982822;28;20101;-86
2021/10/26 12:29:34;;;;;;;0.38;0.38;;;;;;;;;;4981977;28;20559;-85
2021/10/26 12:32:04;;;;;;;0.20;0.20;;;;;;;;;;4982594;28;20034;-86
2021/10/26 12:34:33;;;;;;;0.30;0.30;;;;;;;;;;4973403;28;20046;-86
2021/10/26 12:37:37;;;;;;;0.00;0.00;;;;;;;;;;4981858;28;20030;-85
2021/10/26 12:40:06;;;;;;;0.00;0.00;;;;;;;;;;4889082;29;20067;-85
2021/10/26 12:42:36;;;;;;;0.17;0.17;;;;;;;;;;4879065;29;20483;-85
2021/10/26 12:45:03;;;;;;;0.00;0.00;;;;;;;;;;4932695;28;20034;-86
2021/10/26 12:47:31;;;;;;;0.00;0.00;;;;;;;;;;4980789;28;20034;-85
2021/10/26 12:49:56;;;;;;;3.63;0.50;;;;;;;;;;4974730;28;20547;-86
2021/10/26 12:52:23;;;;;;;0.10;0.10;;;;;;;;;;4980404;28;20030;-85
2021/10/26 12:54:49;;;;;;;0.00;0.00;;;;;;;;;;4987106;28;20038;-85
2021/10/26 12:57:14;;;;;;;0.52;0.52;;;;;;;;;;4984063;28;20018;-85
2021/10/26 12:59:39;;;;;;;0.45;0.45;;;;;;;;;;4982960;28;20045;-85
2021/10/26 13:02:06;;;;;;;0.13;0.13;;;;;;;;;;4983919;28;20069;-87
2021/10/26 13:04:32;;;;;;;0.00;0.00;;;;;;;;;;4978720;28;20050;-86
2021/10/26 13:06:58;;;;;;;0.00;0.00;;;;;;;;;;4986355;28;20367;-85
2021/10/26 13:09:40;;;;;;;0.00;0.00;;;;;;;;;;4979876;28;20047;-85
2021/10/26 13:12:11;;;;;;;0.30;0.30;;;;;;;;;;4978416;28;20022;-86
2021/10/26 13:14:38;;;;;;;0.73;0.73;;;;;;;;;;4978287;28;20030;-87
2021/10/26 13:17:20;;;;;;;0.20;0.20;;;;;;;;;;4982181;28;20034;-85
2021/10/26 13:19:45;;;;;;;0.00;0.00;;;;;;;;;;4978920;28;20038;-85
2021/10/26 13:22:11;;;;;;;0.08;0.08;;;;;;;;;;4984129;28;20490;-87
2021/10/26 13:24:40;;;;;;;0.10;0.10;;;;;;;;;;4985443;28;20023;-85
2021/10/26 13:27:10;;;;;;;0.57;0.38;;;;;;;;;;4978347;28;20053;-85
2021/10/26 13:29:45;;;;;;;0.63;0.63;;;;;;;;;;4983745;28;20062;-85
2021/10/26 13:32:20;;;;;;;0.10;0.10;;;;;;;;;;4980338;28;20058;-85
2021/10/26 13:34:47;;;;;;;0.10;0.10;;;;;;;;;;4988824;28;20034;-86
2021/10/26 13:37:12;;;;;;;0.60;0.60;;;;;;;;;;4991237;28;20030;-85
2021/10/26 13:39:38;;;;;;;5.70;0.15;;;;;;;;;;4982749;28;20054;-85
2021/10/26 13:42:04;;;;;;;0.10;0.10;;;;;;;;;;4982980;28;20069;-85
2021/10/26 13:44:29;;;;;;;0.20;0.20;;;;;;;;;;4983338;28;20041;-85
2021/10/26 13:46:54;;;;;;;0.05;0.03;;;;;;;;;;4982095;28;20513;-86
2021/10/26 13:49:20;;;;;;;2.47;1.95;;;;;;;;;;4976534;28;20018;-85
2021/10/26 13:51:46;;;;;;;0.00;0.00;;;;;;;;;;4975114;28;20074;-85
2021/10/26 13:54:12;;;;;;;1.10;0.65;;;;;;;;;;4981463;28;20104;-85
2021/10/26 13:56:37;;;;;;;0.00;0.00;;;;;;;;;;4983996;28;20448;-85
2021/10/26 13:59:04;;;;;;;0.05;0.00;;;;;;;;;;4970267;28;20073;-85
2021/10/26 14:01:29;;;;;;;0.00;0.00;;;;;;;;;;4962902;28;20069;-85
2021/10/26 14:03:54;;;;;;;3.65;0.22;;;;;;;;;;4986276;28;20459;-85
2021/10/26 14:06:21;;;;;;;0.32;0.08;;;;;;;;;;4979042;28;20027;-85
2021/10/26 14:08:47;;;;;;;1.83;1.30;;;;;;;;;;4980818;28;20062;-86
2021/10/26 14:11:13;;;;;;;10.68;0.90;;;;;;;;;;4982749;28;20041;-85
2021/10/26 14:13:41;;;;;;;3.20;1.55;;;;;;;;;;4987853;28;20039;-85
2021/10/26 14:16:08;;;;;;;0.82;0.15;;;;;;;;;;4987304;28;20502;-86
2021/10/26 14:18:33;;;;;;;0.00;0.00;;;;;;;;;;4980397;28;20691;-86
2021/10/26 14:21:01;;;;;;;0.95;0.70;;;;;;;;;;4977609;28;20035;-85
2021/10/26 14:23:27;;;;;;;0.08;0.08;;;;;;;;;;4975914;28;20102;-85
2021/10/26 14:25:54;;;;;;;0.17;0.17;;;;;;;;;;4978702;28;20026;-85
2021/10/26 14:28:20;;;;;;;0.10;0.10;;;;;;;;;;4981087;28;20034;-86
2021/10/26 14:30:46;;;;;;;0.35;0.35;;;;;;;;;;4973560;28;20031;-86
2021/10/26 14:33:12;;;;;;;1.25;0.60;;;;;;;;;;4975259;28;20045;-86
2021/10/26 14:35:44;;;;;;;0.00;0.00;;;;;;;;;;4982704;28;20116;-86
2021/10/26 14:38:20;;;;;;;0.00;0.00;;;;;;;;;;4977074;28;20803;-86
2021/10/26 14:54:18;;;;;;;0.00;0.00;;;;;;;;;;4982095;28;20151;-86
2021/10/26 14:56:43;;;;;;;0.10;0.08;;;;;;;;;;4973351;28;20109;-86
2021/10/26 14:59:10;;;;;;;0.13;0.13;;;;;;;;;;4976851;28;20455;-86
2021/10/26 15:01:38;;;;;;;0.00;0.00;;;;;;;;;;4983233;28;20019;-86
2021/10/26 15:04:05;;;;;;;0.00;0.00;;;;;;;;;;4979449;28;20031;-86